Accueil
METAR-TAF:

METAR-TAF

Aéroports :

Mont-De-Marsan, France

Base aérienne 118 Mont-de-Marsan

latitude: 43-55N, longitude: 000-30W, altitude: 62 m

Observation

Le bulletin a été fait il y a 33 minutes, à 22:30 UTC
Vent 3 kt de est/nord-est
Température 14°C
Humidité 82%
Pression 1024 hPa
Visibilité 10 km ou plus
pas de nuages en-dessous de 1500 mètres et pas de cumulonimbus.

METAR: LFBM 202230Z AUTO 06003KT CAVOK 14/11 Q1024 NOSIG

Heure: 01:03 (23:03 UTC)

Prévision

Le bulletin a été fait il y a 3 heures et 3 minutes, à 20:00 UTC
Prévision valable du 20 à 21 UTC au 21 à 21 UTC
Vent 5 kt de est
Visibilité 10 km ou plus
pas de nuages en-dessous de 1500 mètres et pas de cumulonimbus.

TAF: LFBM 202000Z 2021/2121 10005KT CAVOK

Observations et prévisions météorologiques de plus de 4000 aéroports (messages METAR et TAF).

Les stations disponibles sont représentées par des disques jaunes et rouges sur la carte.

Passer la souris dessus pour voir le nom de la station.

Cliquer dessus pour voir les observations et prévisions météorologiques.

Pour changer de carte: cliquez sur les boutons verts avec une croix noire pour zoomer, sur le bouton vert avec un tiret pour effectuer un zoom arrière, ou sur les flèches vertes pour les cartes adjacentes.


METAR-TAF: